Terminal Aerodrome Forecast
Issued by NWS Cleveland, OH

Home | Current Version | Previous Version | Text Only | Print | Product List | Glossary On
Versions: 1 2 3 4 5 6 7 8 9 10 11 12 13 14 15 16
000
FTUS41 KCLE 232341
TAFCAK
TAF
KCAK 232341Z 2400/2424 24008KT P6SM VCSH SCT012 OVC018
      TEMPO 2400/2402 -SHRA OVC012
     FM240200 26006KT P6SM BKN018 OVC025
     FM240400 28006KT P6SM BKN025 BKN040
     FM240600 28006KT P6SM SCT080
     FM241400 27010KT P6SM SCT030
     FM241600 27015G25KT P6SM BKN045
     FM242200 27012KT P6SM BKN080=

USA.gov is the U.S. government's official web portal to all federal, state and local government web resources and services.